createdAt,value
2023-03-31T00:00:02.941Z,0
2023-03-31T00:15:02.524Z,0
2023-03-31T00:30:02.780Z,0
2023-03-31T00:45:03.273Z,0
2023-03-31T01:00:02.706Z,0
2023-03-31T01:15:03.131Z,0
2023-03-31T01:30:02.546Z,0
2023-03-31T01:45:02.996Z,0
2023-03-31T02:00:02.559Z,0
2023-03-31T02:15:02.881Z,0
2023-03-31T02:30:02.482Z,0
2023-03-31T02:45:02.736Z,0
2023-03-31T03:00:03.202Z,0
2023-03-31T03:15:02.650Z,0
2023-03-31T03:30:03.067Z,0
2023-03-31T03:45:02.583Z,0
2023-03-31T04:00:02.923Z,0
2023-03-31T04:15:02.559Z,0
2023-03-31T04:30:02.825Z,0
2023-03-31T04:45:03.258Z,0
2023-03-31T05:00:02.676Z,0
2023-03-31T05:15:03.146Z,0
2023-03-31T05:30:02.592Z,0
2023-03-31T05:45:03.028Z,1
2023-03-31T06:00:02.583Z,8
2023-03-31T06:15:02.878Z,8
2023-03-31T06:30:02.540Z,4
2023-03-31T06:45:02.760Z,6
2023-03-31T07:00:03.231Z,69
2023-03-31T07:15:02.707Z,67
2023-03-31T07:30:03.088Z,73
2023-03-31T07:45:02.609Z,104
2023-03-31T08:00:02.961Z,57
2023-03-31T08:15:02.606Z,34
2023-03-31T08:30:02.838Z,39
2023-03-31T08:45:02.315Z,44
2023-03-31T09:00:02.740Z,127
2023-03-31T09:15:03.177Z,75
2023-03-31T09:30:02.656Z,36
2023-03-31T09:45:03.079Z,34
2023-03-31T10:00:02.624Z,57
2023-03-31T10:15:02.906Z,142
2023-03-31T10:30:02.383Z,61
2023-03-31T10:45:02.780Z,61
2023-03-31T11:00:03.242Z,101
2023-03-31T11:15:02.659Z,76
2023-03-31T11:30:03.109Z,102
2023-03-31T11:45:02.645Z,62
2023-03-31T12:00:02.950Z,86
2023-03-31T12:15:02.603Z,257
2023-03-31T12:30:02.828Z,617
2023-03-31T12:45:02.295Z,163
2023-03-31T13:00:02.715Z,211
2023-03-31T13:15:03.133Z,143
2023-03-31T13:30:02.667Z,33
2023-03-31T13:45:02.993Z,84
2023-03-31T14:00:02.658Z,184
2023-03-31T14:15:02.878Z,169
2023-03-31T14:30:02.285Z,133
2023-03-31T14:45:02.769Z,174
2023-03-31T15:00:03.198Z,191
2023-03-31T15:15:02.691Z,182
2023-03-31T15:30:03.080Z,157
2023-03-31T15:45:02.688Z,112
2023-03-31T16:00:02.933Z,76
2023-03-31T16:15:02.388Z,31
2023-03-31T16:30:02.815Z,31
2023-03-31T17:00:02.775Z,45
2023-03-31T17:15:02.141Z,15
2023-03-31T17:30:02.909Z,7
2023-03-31T18:00:02.443Z,0
2023-03-31T18:15:02.910Z,0
2023-03-31T18:30:02.324Z,0
2023-03-31T18:45:02.770Z,0
2023-03-31T19:00:03.221Z,0
2023-03-31T19:15:02.738Z,0
2023-03-31T19:30:03.101Z,0
2023-03-31T19:45:02.746Z,0
2023-03-31T20:00:05.233Z,0
2023-03-31T20:30:02.818Z,0
2023-03-31T20:45:03.299Z,0
2023-03-31T21:00:02.749Z,0
2023-03-31T21:15:03.167Z,0
2023-03-31T21:30:02.785Z,0
2023-03-31T21:45:03.023Z,0
2023-03-31T22:00:02.477Z,0
2023-03-31T22:15:02.858Z,0
2023-03-31T22:30:02.333Z,0
2023-03-31T22:45:02.752Z,0
2023-03-31T23:00:03.222Z,0
2023-03-31T23:15:02.769Z,0
2023-03-31T23:30:02.060Z,0
2023-03-31T23:45:02.510Z,0
